createdAt,value
2022-11-29T00:02:35.732Z,75.03
2022-11-29T00:07:37.880Z,63.13
2022-11-29T00:12:40.018Z,58.95
2022-11-29T00:17:42.073Z,66.78
2022-11-29T00:22:44.054Z,51.60
2022-11-29T00:27:46.165Z,52.08
2022-11-29T00:32:48.199Z,46.15
2022-11-29T00:37:50.168Z,46.95
2022-11-29T00:42:52.193Z,58.60
2022-11-29T00:47:54.284Z,53.92
2022-11-29T00:52:56.342Z,47.97
2022-11-29T00:57:58.540Z,82.70
2022-11-29T01:03:01.690Z,58.95
2022-11-29T01:08:03.885Z,71.03
2022-11-29T01:13:06.650Z,73.88
2022-11-29T01:18:08.865Z,71.85
2022-11-29T01:23:10.843Z,80.95
2022-11-29T01:28:12.838Z,77.20
2022-11-29T01:33:14.802Z,56.53
2022-11-29T01:38:17.118Z,63.42
2022-11-29T01:43:19.106Z,56.38
2022-11-29T01:48:25.093Z,42.72
2022-11-29T01:53:27.858Z,35.40
2022-11-29T01:58:30.226Z,34.75
2022-11-29T02:03:32.235Z,32.00
2022-11-29T02:08:40.465Z,29.83
2022-11-29T02:14:01.201Z,34.30
2022-11-29T02:19:21.520Z,30.08
2022-11-29T02:24:29.591Z,30.98
2022-11-29T02:29:34.235Z,29.45
2022-11-29T02:34:39.031Z,33.67
2022-11-29T02:40:05.940Z,33.75
2022-11-29T02:45:21.708Z,42.33
2022-11-29T02:50:38.905Z,58.05
2022-11-29T02:56:05.998Z,64.40
2022-11-29T03:01:14.189Z,40.83
2022-11-29T03:06:44.268Z,49.35
2022-11-29T03:11:56.912Z,51.55
2022-11-29T03:17:05.731Z,39.33
2022-11-29T03:22:11.886Z,39.85
2022-11-29T03:27:21.171Z,31.55
2022-11-29T03:32:34.875Z,28.83
2022-11-29T03:37:50.373Z,38.22
2022-11-29T03:43:16.941Z,30.05
2022-11-29T03:48:27.614Z,27.83
2022-11-29T03:53:50.596Z,25.27
2022-11-29T03:59:04.040Z,25.73
2022-11-29T04:04:43.613Z,25.20
2022-11-29T04:10:20.284Z,29.60
2022-11-29T04:15:50.763Z,26.75
2022-11-29T04:21:16.934Z,25.08
2022-11-29T04:26:44.185Z,23.58
2022-11-29T04:32:14.337Z,27.00
2022-11-29T04:37:58.382Z,28.08
2022-11-29T04:43:44.495Z,30.65
2022-11-29T04:49:07.234Z,26.83
2022-11-29T04:54:30.960Z,47.33
2022-11-29T05:00:11.640Z,37.78
2022-11-29T05:05:54.894Z,45.63
2022-11-29T05:11:04.920Z,43.15
2022-11-29T05:16:32.884Z,31.48
2022-11-29T05:22:01.013Z,32.33
2022-11-29T05:27:57.022Z,39.60
2022-11-29T05:33:17.712Z,29.10
2022-11-29T05:38:34.495Z,40.23
2022-11-29T05:43:49.676Z,29.08
2022-11-29T05:49:04.658Z,35.40
2022-11-29T05:54:41.836Z,27.27
2022-11-29T05:59:45.282Z,30.25
2022-11-29T06:05:06.743Z,23.10
2022-11-29T06:10:13.654Z,24.67
2022-11-29T06:15:46.689Z,33.22
2022-11-29T06:21:26.446Z,32.65
2022-11-29T06:26:51.986Z,27.80
2022-11-29T06:32:20.471Z,52.38
2022-11-29T06:37:31.706Z,38.58
2022-11-29T06:42:33.754Z,29.95
2022-11-29T06:47:46.756Z,27.73
2022-11-29T06:53:02.790Z,40.55
2022-11-29T06:58:12.458Z,43.00
2022-11-29T07:03:36.477Z,34.90
2022-11-29T07:08:39.672Z,43.53
2022-11-29T07:13:42.148Z,36.72
2022-11-29T07:18:50.331Z,33.40
2022-11-29T07:24:18.808Z,41.75
2022-11-29T07:29:30.250Z,36.17
2022-11-29T07:35:01.763Z,39.58
2022-11-29T07:40:13.899Z,40.53
2022-11-29T07:45:31.963Z,38.10
2022-11-29T07:50:35.251Z,45.67
2022-11-29T07:55:37.457Z,53.15
2022-11-29T08:00:41.966Z,50.80
2022-11-29T08:05:47.666Z,41.58
2022-11-29T08:10:49.933Z,43.83
2022-11-29T08:15:52.008Z,52.50
2022-11-29T08:20:53.988Z,70.15
2022-11-29T08:26:00.508Z,64.93
2022-11-29T08:31:05.060Z,60.08
2022-11-29T08:36:14.575Z,78.57
2022-11-29T08:41:17.627Z,67.75
2022-11-29T08:46:19.741Z,44.92
2022-11-29T08:51:21.758Z,66.80
2022-11-29T08:57:10.318Z,53.08
2022-11-29T09:01:45.852Z,58.67
2022-11-29T09:06:49.605Z,41.35
2022-11-29T09:11:51.859Z,53.88
2022-11-29T09:16:55.324Z,39.63
2022-11-29T09:21:57.567Z,44.90
2022-11-29T09:26:59.999Z,48.17
2022-11-29T09:32:02.138Z,47.85
2022-11-29T09:37:05.203Z,55.28
2022-11-29T09:42:58.526Z,61.58
2022-11-29T09:48:26.295Z,43.60
2022-11-29T09:53:46.892Z,58.63
2022-11-29T09:58:55.226Z,50.87
2022-11-29T10:04:02.910Z,43.13
2022-11-29T10:09:16.765Z,46.85
2022-11-29T10:14:33.484Z,48.47
2022-11-29T10:19:42.515Z,50.67
2022-11-29T10:24:58.272Z,45.40
2022-11-29T10:30:02.387Z,46.75
2022-11-29T10:35:11.975Z,43.63
2022-11-29T10:40:20.760Z,40.22
2022-11-29T10:45:33.977Z,45.78
2022-11-29T10:50:52.756Z,37.13
2022-11-29T10:56:09.199Z,43.17
2022-11-29T11:01:13.673Z,38.05
2022-11-29T11:06:18.364Z,42.67
2022-11-29T11:11:30.459Z,39.65
2022-11-29T11:16:37.368Z,50.30
2022-11-29T11:21:39.870Z,50.53
2022-11-29T11:26:45.103Z,44.15
2022-11-29T11:31:53.793Z,46.25
2022-11-29T11:37:17.923Z,57.58
2022-11-29T11:42:38.217Z,46.38
2022-11-29T11:47:47.322Z,59.55
2022-11-29T11:52:53.288Z,52.13
2022-11-29T11:58:07.821Z,60.80
2022-11-29T12:03:26.116Z,54.15
2022-11-29T12:08:29.538Z,59.63
2022-11-29T12:13:35.671Z,43.20
2022-11-29T12:18:40.510Z,45.40
2022-11-29T12:24:04.803Z,47.72
2022-11-29T12:29:15.262Z,49.70
2022-11-29T12:34:23.529Z,47.92
2022-11-29T12:39:59.363Z,39.78
2022-11-29T12:45:24.679Z,38.90
2022-11-29T12:50:40.257Z,39.28
2022-11-29T12:56:08.048Z,40.85
2022-11-29T13:01:25.472Z,41.55
2022-11-29T13:06:44.099Z,41.88
2022-11-29T13:12:10.372Z,44.05
2022-11-29T13:17:27.719Z,46.70
2022-11-29T13:22:45.342Z,48.00
2022-11-29T13:28:07.299Z,46.28
2022-11-29T13:33:26.295Z,54.15
2022-11-29T13:39:09.982Z,50.17
2022-11-29T13:44:17.289Z,60.88
2022-11-29T13:49:40.153Z,58.22
2022-11-29T13:54:42.551Z,73.53
2022-11-29T13:59:49.347Z,73.03
2022-11-29T14:04:51.937Z,76.57
2022-11-29T14:10:05.808Z,59.28
2022-11-29T14:15:10.864Z,66.90
2022-11-29T14:20:25.194Z,61.50
2022-11-29T14:30:58.636Z,58.00
2022-11-29T14:36:13.293Z,59.65
2022-11-29T14:41:27.229Z,60.33
2022-11-29T14:46:32.319Z,76.70
2022-11-29T14:51:34.870Z,67.65
2022-11-29T14:56:39.210Z,61.83
2022-11-29T15:01:45.465Z,87.80
2022-11-29T15:06:52.942Z,80.38
2022-11-29T15:12:02.234Z,75.93
2022-11-29T15:17:31.940Z,68.05
2022-11-29T15:22:53.855Z,70.25
2022-11-29T15:27:57.237Z,69.43
2022-11-29T15:33:00.616Z,65.70
2022-11-29T15:38:03.190Z,60.03
2022-11-29T15:43:14.503Z,63.90
2022-11-29T15:48:23.827Z,59.30
2022-11-29T15:53:32.730Z,59.38
2022-11-29T15:58:36.321Z,57.35
2022-11-29T16:03:40.979Z,64.68
2022-11-29T16:08:43.813Z,62.40
2022-11-29T16:14:22.974Z,66.57
2022-11-29T16:19:36.097Z,65.75
2022-11-29T16:24:40.699Z,66.88
2022-11-29T16:29:45.192Z,68.05
2022-11-29T16:34:47.667Z,81.25
2022-11-29T16:39:52.411Z,63.42
2022-11-29T16:45:00.388Z,72.85
2022-11-29T16:50:02.508Z,73.75
2022-11-29T16:55:04.858Z,79.28
2022-11-29T17:00:23.566Z,74.55
2022-11-29T17:05:26.003Z,72.82
2022-11-29T17:10:28.802Z,70.65
2022-11-29T17:15:30.889Z,77.72
2022-11-29T17:20:33.985Z,69.80
2022-11-29T17:25:36.095Z,75.22
2022-11-29T17:30:38.094Z,73.25
2022-11-29T17:35:40.105Z,74.82
2022-11-29T17:40:42.102Z,70.50
2022-11-29T17:45:44.244Z,71.50
2022-11-29T17:50:46.236Z,76.25
2022-11-29T17:55:48.191Z,78.20
2022-11-29T18:00:50.307Z,82.15
2022-11-29T18:05:52.335Z,77.65
2022-11-29T18:11:03.396Z,61.10
2022-11-29T18:21:12.929Z,76.70
2022-11-29T18:26:18.085Z,71.25
2022-11-29T18:31:28.701Z,69.88
2022-11-29T18:36:33.706Z,76.07
2022-11-29T18:41:37.440Z,75.03
2022-11-29T18:46:42.894Z,77.45
2022-11-29T18:51:46.670Z,83.65
2022-11-29T18:56:50.617Z,84.95
2022-11-29T19:01:52.768Z,75.07
2022-11-29T19:06:55.044Z,83.88
2022-11-29T19:11:57.031Z,79.40
2022-11-29T19:16:59.435Z,73.53
2022-11-29T19:22:01.437Z,89.35
2022-11-29T19:27:05.974Z,85.63
2022-11-29T19:32:09.439Z,83.65
2022-11-29T19:37:11.471Z,100.95
2022-11-29T19:42:13.477Z,97.32
2022-11-29T19:47:15.630Z,99.93
2022-11-29T19:52:17.683Z,83.47
2022-11-29T19:57:19.783Z,78.07
2022-11-29T20:02:22.892Z,75.38
2022-11-29T20:07:25.201Z,75.40
2022-11-29T20:12:27.382Z,64.65
2022-11-29T20:17:29.350Z,67.68
2022-11-29T20:22:31.372Z,63.92
2022-11-29T20:27:33.456Z,70.38
2022-11-29T20:32:35.931Z,63.00
2022-11-29T20:37:53.137Z,64.70
2022-11-29T20:43:13.599Z,69.47
2022-11-29T20:48:24.700Z,60.78
2022-11-29T20:58:29.767Z,54.28
2022-11-29T21:03:32.131Z,54.20
2022-11-29T21:08:34.447Z,65.70
2022-11-29T21:13:37.198Z,68.63
2022-11-29T21:18:39.489Z,62.20
2022-11-29T21:23:52.794Z,59.70
2022-11-29T21:29:09.961Z,64.80
2022-11-29T21:34:12.401Z,61.38
2022-11-29T21:39:16.482Z,54.95
2022-11-29T21:44:18.499Z,67.45
2022-11-29T21:49:20.579Z,64.15
2022-11-29T21:54:22.734Z,62.88
2022-11-29T21:59:24.934Z,64.85
2022-11-29T22:04:27.018Z,65.57
2022-11-29T22:09:29.018Z,65.10
2022-11-29T22:14:32.152Z,67.35
2022-11-29T22:19:36.378Z,71.65
2022-11-29T22:24:38.523Z,74.15
2022-11-29T22:29:40.587Z,70.05
2022-11-29T22:34:42.694Z,78.18
2022-11-29T22:39:45.029Z,71.25
2022-11-29T22:44:47.305Z,71.72
2022-11-29T22:49:49.856Z,65.55
2022-11-29T22:54:51.838Z,72.57
2022-11-29T22:59:53.790Z,70.38
2022-11-29T23:04:55.743Z,78.82
2022-11-29T23:09:57.773Z,63.72
2022-11-29T23:15:01.943Z,70.32
2022-11-29T23:20:04.972Z,83.13
2022-11-29T23:25:07.498Z,79.22
2022-11-29T23:30:10.025Z,73.05
2022-11-29T23:35:12.017Z,69.70
2022-11-29T23:40:14.788Z,70.15
2022-11-29T23:45:16.822Z,64.55
2022-11-29T23:50:18.833Z,57.35
2022-11-29T23:55:22.710Z,49.88
